KGGW/GGW METAR and TAF weather

Enter ICAO airport designator
Station Type Date Time Source
KGGW METAR 2019/06/27 09:53 UTC NOAA

KGGW 270953Z AUTO 07014KT 10SM SCT065 19/10 A2995 RMK AO2 LTG DSNT E SLP128 T01890100 $


Station Type Date Time Source
KGGW Decoded METAR 2019/06/27 09:53 UTC NOAA

GLASGOW INTERNATIONAL AIRPORT , MT, United States (KGGW) 48-13N 106-37W 693M
Jun 27, 2019 - 05:53 AM EDT / 2019.06.27 0953 UTC
Wind: from the ENE (070 degrees) at 16 MPH (14 KT):0
Visibility: 10 mile(s):0
Sky conditions: partly cloudy
Weather: Lightning observed
Temperature: 66.0 F (18.9 C)
Dew Point: 50.0 F (10.0 C)
Relative Humidity: 56%
Pressure (altimeter): 29.95 in. Hg (1014 hPa)
ob: KGGW 270953Z AUTO 07014KT 10SM SCT065 19/10 A2995 RMK AO2 LTG DSNT E SLP128 T01890100
cycle: 10

Station Type Date Time Source
KGGW TAF 2019/06/27 06:33 UTC NOAA

TAF KGGW 270531Z 2706/2806 10010KT P6SM SCT150
FM271600 12013KT P6SM SCT100
FM280100 11020G28KT P6SM VCSH OVC100

Example: see airport list